Home > Products > Valid Products > TAF

000
FTUS43 KDDC 311700
TAFDDC
TAF
KDDC 311727Z 3118/0118 VRB06KT P6SM FEW060 FEW150=



000
FTUS43 KDDC 311700
TAFGCK
TAF
KGCK 311727Z 3118/0118 VRB06KT P6SM FEW060 FEW150=



000
FTUS43 KDDC 311700
TAFDDC
TAF
KDDC 311727Z 3118/0118 VRB06KT P6SM FEW060 FEW150=



000
FTUS43 KDDC 311700
TAFHYS
TAF
KHYS 311727Z 3118/0118 VRB06KT P6SM FEW060 FEW150=



000
FTUS43 KDDC 311700
TAFHYS
TAF
KHYS 311727Z 3118/0118 VRB06KT P6SM FEW060 FEW150=



000
FTUS43 KDDC 311700
TAFGCK
TAF
KGCK 311727Z 3118/0118 VRB06KT P6SM FEW060 FEW150=



000
FTUS43 KDDC 311200 AAA
TAFHYS
TAF AMD
KHYS 311258Z 3113/0112 VRB06KT P6SM FEW060 FEW150
      TEMPO 3113/3114 4SM BR=



000
FTUS43 KDDC 311200 AAA
TAFHYS
TAF AMD
KHYS 311258Z 3113/0112 VRB06KT P6SM FEW060 FEW150
      TEMPO 3113/3114 4SM BR=



000
FTUS43 KDDC 311100
TAFDDC
TAF
KDDC 311120Z 3112/0112 VRB06KT P6SM FEW060 FEW150=



000
FTUS43 KDDC 311100
TAFGCK
TAF
KGCK 311120Z 3112/0112 VRB06KT P6SM FEW060 FEW150=



000
FTUS43 KDDC 311100
TAFDDC
TAF
KDDC 311120Z 3112/0112 VRB06KT P6SM FEW060 FEW150=



000
FTUS43 KDDC 311100
TAFGCK
TAF
KGCK 311120Z 3112/0112 VRB06KT P6SM FEW060 FEW150=



000
FTUS43 KDDC 311100
TAFHYS
TAF
KHYS 311120Z 3112/0112 VRB06KT P6SM FEW060 FEW150=



000
FTUS43 KDDC 311100
TAFHYS
TAF
KHYS 311120Z 3112/0112 VRB06KT P6SM FEW060 FEW150=



000
FTUS43 KDDC 310500
TAFGCK
TAF
KGCK 310520Z 3106/0106 VRB06KT P6SM SCT150=



000
FTUS43 KDDC 310500
TAFGCK
TAF
KGCK 310520Z 3106/0106 VRB06KT P6SM SCT150=



000
FTUS43 KDDC 310500
TAFHYS
TAF
KHYS 310520Z 3106/0106 VRB06KT P6SM SCT150=



000
FTUS43 KDDC 310500
TAFHYS
TAF
KHYS 310520Z 3106/0106 VRB06KT P6SM SCT150=



000
FTUS43 KDDC 310500
TAFDDC
TAF
KDDC 310520Z 3106/0106 VRB06KT P6SM SCT150=



000
FTUS43 KDDC 310500
TAFDDC
TAF
KDDC 310520Z 3106/0106 VRB06KT P6SM SCT150=



000
FTUS43 KDDC 302300
TAFDDC
TAF
KDDC 302340Z 3100/3124 05010KT P6SM FEW040 BKN150
     FM310200 VRB06KT P6SM SCT150=



000
FTUS43 KDDC 302300
TAFHYS
TAF
KHYS 302340Z 3100/3124 VRB06KT P6SM SCT150=



000
FTUS43 KDDC 302300
TAFDDC
TAF
KDDC 302340Z 3100/3124 05010KT P6SM FEW040 BKN150
     FM310200 VRB06KT P6SM SCT150=



000
FTUS43 KDDC 302300
TAFGCK
TAF
KGCK 302340Z 3100/3124 05012KT P6SM FEW040 BKN150
     FM310200 VRB06KT P6SM SCT150=



000
FTUS43 KDDC 302300
TAFGCK
TAF
KGCK 302340Z 3100/3124 05012KT P6SM FEW040 BKN150
     FM310200 VRB06KT P6SM SCT150=



000
FTUS43 KDDC 302300
TAFHYS
TAF
KHYS 302340Z 3100/3124 VRB06KT P6SM SCT150=



000
FTUS43 KDDC 302000 AAA
TAFDDC
TAF AMD
KDDC 302055Z 3021/3118 05012KT P6SM BKN007
     FM310000 VRB06KT P6SM SCT050=



000
FTUS43 KDDC 302000 AAA
TAFDDC
TAF AMD
KDDC 302055Z 3021/3118 05012KT P6SM BKN007
     FM310000 VRB06KT P6SM SCT050=



000
FTUS43 KDDC 302000 AAC
TAFGCK
TAF AMD
KGCK 302055Z 3021/3118 05013KT P6SM OVC010
     FM310000 VRB06KT P6SM SCT050=



000
FTUS43 KDDC 302000 AAC
TAFGCK
TAF AMD
KGCK 302055Z 3021/3118 05013KT P6SM OVC010
     FM310000 VRB06KT P6SM SCT050=



000
FTUS43 KDDC 301900 AAB
TAFGCK
TAF AMD
KGCK 301912Z 3019/3118 06015G25KT P6SM BKN006 OVC010
     FM302000 05012KT P6SM BKN015
     FM302200 VRB06KT P6SM SCT050=



000
FTUS43 KDDC 301900 AAB
TAFGCK
TAF AMD
KGCK 301912Z 3019/3118 06015G25KT P6SM BKN006 OVC010
     FM302000 05012KT P6SM BKN015
     FM302200 VRB06KT P6SM SCT050=



000
FTUS43 KDDC 301900 AAA
TAFDDC
TAF AMD
KDDC 301911Z 3019/3118 05012KT P6SM BKN015
     FM302300 VRB06KT P6SM SCT050=



000
FTUS43 KDDC 301900 AAA
TAFDDC
TAF AMD
KDDC 301911Z 3019/3118 05012KT P6SM BKN015
     FM302300 VRB06KT P6SM SCT050=



000
FTUS43 KDDC 301700 AAA
TAFGCK
TAF AMD
KGCK 301723Z 3017/3118 05015G25KT P6SM OVC006
     FM301900 05012KT P6SM BKN015
     FM302200 VRB06KT P6SM SCT050=



000
FTUS43 KDDC 301700 AAA
TAFGCK
TAF AMD
KGCK 301723Z 3017/3118 05015G25KT P6SM OVC006
     FM301900 05012KT P6SM BKN015
     FM302200 VRB06KT P6SM SCT050=



000
FTUS43 KDDC 301700
TAFHYS
TAF
KHYS 301720Z 3018/3118 08010KT P6SM -SHRA OVC070
     FM302000 05008KT P6SM BKN100
     FM302200 VRB06KT P6SM SCT150=



000
FTUS43 KDDC 301700
TAFGCK
TAF
KGCK 301720Z 3018/3118 05015G25KT P6SM OVC005
     FM301900 05012KT P6SM BKN015
     FM302200 VRB06KT P6SM SCT050=



000
FTUS43 KDDC 301700
TAFHYS
TAF
KHYS 301720Z 3018/3118 08010KT P6SM -SHRA OVC070
     FM302000 05008KT P6SM BKN100
     FM302200 VRB06KT P6SM SCT150=



000
FTUS43 KDDC 301700
TAFDDC
TAF
KDDC 301720Z 3018/3118 06015KT 6SM -RA BR OVC005
     FM301900 05012KT P6SM BKN015
     FM302300 VRB06KT P6SM SCT050=



000
FTUS43 KDDC 301700
TAFDDC
TAF
KDDC 301720Z 3018/3118 06015KT 6SM -RA BR OVC005
     FM301900 05012KT P6SM BKN015
     FM302300 VRB06KT P6SM SCT050=



000
FTUS43 KDDC 301700
TAFGCK
TAF
KGCK 301720Z 3018/3118 05015G25KT P6SM OVC005
     FM301900 05012KT P6SM BKN015
     FM302200 VRB06KT P6SM SCT050=



000
FTUS43 KDDC 301600 AAA
TAFHYS
TAF AMD
KHYS 301654Z 3017/3112 09010KT P6SM -RA OVC050
     FM302000 VRB07KT P6SM BKN070=



000
FTUS43 KDDC 301600 AAC
TAFDDC
TAF AMD
KDDC 301650Z 3017/3112 04015KT 4SM -RA BR OVC005
     FM302100 06012KT P6SM BKN020=



000
FTUS43 KDDC 301600 AAC
TAFDDC
TAF AMD
KDDC 301650Z 3017/3112 04015KT 4SM -RA BR OVC005
     FM302100 06012KT P6SM BKN020=



000
FTUS43 KDDC 301500 AAB
TAFDDC
TAF AMD
KDDC 301549Z 3016/3112 08010KT 4SM -RA BR BKN007 OVC035
     FM302100 06012KT P6SM BKN020=



000
FTUS43 KDDC 301500 AAB
TAFDDC
TAF AMD
KDDC 301549Z 3016/3112 08010KT 4SM -RA BR BKN007 OVC035
     FM302100 06012KT P6SM BKN020=



000
FTUS43 KDDC 301500 AAB
TAFGCK
TAF AMD
KGCK 301515Z 3015/3112 06014G23KT 3SM RA BR BKN004 OVC060
     FM302000 06012KT P6SM BKN020=



000
FTUS43 KDDC 301500 AAB
TAFGCK
TAF AMD
KGCK 301515Z 3015/3112 06014G23KT 3SM RA BR BKN004 OVC060
     FM302000 06012KT P6SM BKN020=



000
FTUS43 KDDC 301500 AAA
TAFGCK
TAF AMD
KGCK 301507Z 3015/3112 06014KT 3SM RA BR BKN006 OVC060
     FM302000 06012KT P6SM BKN020=



000
FTUS43 KDDC 301500 AAA
TAFDDC
TAF AMD
KDDC 301506Z 3015/3112 08010KT 3SM RA BR BKN006 OVC035
     FM302100 06012KT P6SM BKN020=



000
FTUS43 KDDC 301500 AAA
TAFDDC
TAF AMD
KDDC 301506Z 3015/3112 08010KT 3SM RA BR BKN006 OVC035
     FM302100 06012KT P6SM BKN020=



000
FTUS43 KDDC 301300 AAA
TAFDDC
TAF AMD
KDDC 301356Z 3014/3112 08010KT 2SM RA BR OVC005
     FM302100 06012KT P6SM BKN020=



000
FTUS43 KDDC 301300 AAA
TAFDDC
TAF AMD
KDDC 301356Z 3014/3112 08010KT 2SM RA BR OVC005
     FM302100 06012KT P6SM BKN020=



000
FTUS43 KDDC 301200 CCA
TAFHYS
TAF AMD
KHYS 301219Z 3012/3112 09008KT P6SM SCT050
      TEMPO 3012/3016 07010KT P6SM -RA OVC050
     FM301600 06012KT P6SM BKN070
      TEMPO 3016/3020 RA OVC020=



000
FTUS43 KDDC 301200 CCA
TAFHYS
TAF AMD
KHYS 301219Z 3012/3112 09008KT P6SM SCT050
      TEMPO 3012/3016 07010KT P6SM -RA OVC050
     FM301600 06012KT P6SM BKN070
      TEMPO 3016/3020 RA OVC020=



000
FTUS43 KDDC 301100
TAFHYS
TAF
KHYS 301139Z 3012/3112 09008KT P6SM SCT050
      TEMPO 3012/3016 07010KT P6SM -RA OVC050
     FM301600 06012KT P6SM BKN070
      TEMPO 3016/3021 RA OVC020=



000
FTUS43 KDDC 301100
TAFDDC
TAF
KDDC 301139Z 3012/3112 12007KT 2SM RA OVC015
     FM301400 10008KT 5SM -RA OVC010
      TEMPO 3014/3016 2SM RA BR OVC005
     FM302100 06012KT P6SM BKN020=



000
FTUS43 KDDC 301100
TAFGCK
TAF
KGCK 301139Z 3012/3112 08014KT 2SM RA BR OVC015
     FM301400 10008KT 5SM -RA OVC010
      TEMPO 3014/3018 2SM RA BR OVC005
     FM302000 06012KT P6SM BKN020=



000
FTUS43 KDDC 301100
TAFDDC
TAF
KDDC 301139Z 3012/3112 12007KT 2SM RA OVC015
     FM301400 10008KT 5SM -RA OVC010
      TEMPO 3014/3016 2SM RA BR OVC005
     FM302100 06012KT P6SM BKN020=



000
FTUS43 KDDC 301100
TAFHYS
TAF
KHYS 301139Z 3012/3112 09008KT P6SM SCT050
      TEMPO 3012/3016 07010KT P6SM -RA OVC050
     FM301600 06012KT P6SM BKN070
      TEMPO 3016/3021 RA OVC020=



000
FTUS43 KDDC 301100
TAFGCK
TAF
KGCK 301139Z 3012/3112 08014KT 2SM RA BR OVC015
     FM301400 10008KT 5SM -RA OVC010
      TEMPO 3014/3018 2SM RA BR OVC005
     FM302000 06012KT P6SM BKN020=



000
FTUS43 KDDC 300500
TAFGCK
TAF
KGCK 300533Z 3006/3106 13010KT 5SM -SHRA OVC035
      TEMPO 3006/3010 2SM -TSRA OVC025CB
     FM301000 10008KT 2SM -TSRA OVC015CB
     FM301900 06012KT P6SM BKN020=



000
FTUS43 KDDC 300500
TAFHYS
TAF
KHYS 300533Z 3006/3106 09008KT P6SM SCT050
      TEMPO 3011/3015 07010KT P6SM -SHRA OVC050
     FM301500 06012KT P6SM BKN070 PROB30 3015/3020 -TSRA OVC030CB=



000
FTUS43 KDDC 300500
TAFGCK
TAF
KGCK 300533Z 3006/3106 13010KT 5SM -SHRA OVC035
      TEMPO 3006/3010 2SM -TSRA OVC025CB
     FM301000 10008KT 2SM -TSRA OVC015CB
     FM301900 06012KT P6SM BKN020=



000
FTUS43 KDDC 300500
TAFDDC
TAF
KDDC 300533Z 3006/3106 13007KT P6SM BKN070
     FM300700 12007KT 5SM -SHRA OVC035
      TEMPO 3008/3012 2SM -TSRA OVC025CB
     FM301200 10008KT 2SM -TSRA OVC015CB
     FM302100 06012KT P6SM BKN020=



000
FTUS43 KDDC 300500
TAFDDC
TAF
KDDC 300533Z 3006/3106 13007KT P6SM BKN070
     FM300700 12007KT 5SM -SHRA OVC035
      TEMPO 3008/3012 2SM -TSRA OVC025CB
     FM301200 10008KT 2SM -TSRA OVC015CB
     FM302100 06012KT P6SM BKN020=



000
FTUS43 KDDC 300500
TAFHYS
TAF
KHYS 300533Z 3006/3106 09008KT P6SM SCT050
      TEMPO 3011/3015 07010KT P6SM -SHRA OVC050
     FM301500 06012KT P6SM BKN070 PROB30 3015/3020 -TSRA OVC030CB=



000
FTUS43 KDDC 300200 AAA
TAFHYS
TAF AMD
KHYS 300219Z 3002/3024 08012KT P6SM BKN040
     FM301100 09010KT P6SM VCSH BKN040=



000
FTUS43 KDDC 292300
TAFDDC
TAF
KDDC 292321Z 3000/3024 16010KT P6SM BKN150
     FM300600 10010KT P6SM VCSH OVC150
     FM301200 09012KT P6SM VCTS BKN015CB=



000
FTUS43 KDDC 292300
TAFGCK
TAF
KGCK 292321Z 3000/3024 16010KT P6SM BKN150
     FM300600 09010KT P6SM VCSH OVC150
     FM301200 09012KT P6SM VCTS BKN010CB=



000
FTUS43 KDDC 292300
TAFHYS
TAF
KHYS 292321Z 3000/3024 12010KT P6SM SCT200
     FM300300 08008KT P6SM BKN150
     FM301100 09010KT P6SM VCSH BKN040=



000
FTUS43 KDDC 292300
TAFGCK
TAF
KGCK 292321Z 3000/3024 16010KT P6SM BKN150
     FM300600 09010KT P6SM VCSH OVC150
     FM301200 09012KT P6SM VCTS BKN010CB=



000
FTUS43 KDDC 292300
TAFDDC
TAF
KDDC 292321Z 3000/3024 16010KT P6SM BKN150
     FM300600 10010KT P6SM VCSH OVC150
     FM301200 09012KT P6SM VCTS BKN015CB=



000
FTUS43 KDDC 292300
TAFHYS
TAF
KHYS 292321Z 3000/3024 12010KT P6SM SCT200
     FM300300 08008KT P6SM BKN150
     FM301100 09010KT P6SM VCSH BKN040=



000
FTUS43 KDDC 291700
TAFGCK
TAF
KGCK 291737Z 2918/3018 20014G18KT P6SM SCT040
     FM300100 17007KT P6SM SCT040 BKN080
      TEMPO 3002/3006 5SM -TSRA BKN035CB
     FM300600 09014KT P6SM -RA OVC020
      TEMPO 3007/3011 3SM +TSRA OVC010CB=



000
FTUS43 KDDC 291700
TAFDDC
TAF
KDDC 291737Z 2918/3018 19014G18KT P6SM SCT035
     FM300100 17007KT P6SM SCT040 BKN080
      TEMPO 3002/3006 -TSRA BKN040CB
     FM300600 10010KT P6SM -RA OVC020
      TEMPO 3007/3011 4SM TSRA OVC015CB=



000
FTUS43 KDDC 291700
TAFGCK
TAF
KGCK 291737Z 2918/3018 20014G18KT P6SM SCT040
     FM300100 17007KT P6SM SCT040 BKN080
      TEMPO 3002/3006 5SM -TSRA BKN035CB
     FM300600 09014KT P6SM -RA OVC020
      TEMPO 3007/3011 3SM +TSRA OVC010CB=



000
FTUS43 KDDC 291700
TAFDDC
TAF
KDDC 291737Z 2918/3018 19014G18KT P6SM SCT035
     FM300100 17007KT P6SM SCT040 BKN080
      TEMPO 3002/3006 -TSRA BKN040CB
     FM300600 10010KT P6SM -RA OVC020
      TEMPO 3007/3011 4SM TSRA OVC015CB=



000
FTUS43 KDDC 291700
TAFHYS
TAF
KHYS 291737Z 2918/3018 14012KT P6SM SCT200
     FM300300 08008KT P6SM SCT040 BKN080
     FM301100 09010KT P6SM VCSH BKN080=



000
FTUS43 KDDC 291600 AAA
TAFHYS
TAF AMD
KHYS 291611Z 2916/3012 16014KT P6SM SCT200
     FM300600 09010KT P6SM -RA OVC010
      TEMPO 3006/3010 5SM TSRA OVC004CB=



000
FTUS43 KDDC 291600 AAA
TAFHYS
TAF AMD
KHYS 291611Z 2916/3012 16014KT P6SM SCT200
     FM300600 09010KT P6SM -RA OVC010
      TEMPO 3006/3010 5SM TSRA OVC004CB=



000
FTUS43 KDDC 291600 AAA
TAFGCK
TAF AMD
KGCK 291610Z 2916/3012 20014G18KT P6SM SCT200 PROB30 3002/3006
      -TSRA OVC020CB
     FM300600 09014KT P6SM -RA OVC010
      TEMPO 3006/3010 5SM +TSRA OVC004CB=



000
FTUS43 KDDC 291600 AAA
TAFGCK
TAF AMD
KGCK 291610Z 2916/3012 20014G18KT P6SM SCT200 PROB30 3002/3006
      -TSRA OVC020CB
     FM300600 09014KT P6SM -RA OVC010
      TEMPO 3006/3010 5SM +TSRA OVC004CB=



000
FTUS43 KDDC 291100
TAFHYS
TAF
KHYS 291136Z 2912/3012 VRB06KT P6SM SCT200
     FM291600 19014KT P6SM SCT200
     FM300600 09010KT P6SM -RA OVC010
      TEMPO 3006/3010 5SM TSRA OVC004CB=



000
FTUS43 KDDC 291100
TAFDDC
TAF
KDDC 291136Z 2912/3012 VRB06KT P6SM SCT200
     FM291600 19014G18KT P6SM SCT200 PROB30 3002/3006 -TSRA OVC020CB
     FM300600 09014KT P6SM -RA OVC010
      TEMPO 3006/3010 3SM TSRA OVC003CB=



000
FTUS43 KDDC 291100
TAFDDC
TAF
KDDC 291136Z 2912/3012 VRB06KT P6SM SCT200
     FM291600 19014G18KT P6SM SCT200 PROB30 3002/3006 -TSRA OVC020CB
     FM300600 09014KT P6SM -RA OVC010
      TEMPO 3006/3010 3SM TSRA OVC003CB=



000
FTUS43 KDDC 291100
TAFHYS
TAF
KHYS 291136Z 2912/3012 VRB06KT P6SM SCT200
     FM291600 19014KT P6SM SCT200
     FM300600 09010KT P6SM -RA OVC010
      TEMPO 3006/3010 5SM TSRA OVC004CB=



000
FTUS43 KDDC 291100
TAFGCK
TAF
KGCK 291136Z 2912/3012 VRB06KT P6SM SCT200
     FM291600 19014G18KT P6SM SCT200 PROB30 3002/3006 -TSRA OVC020CB
     FM300600 09014KT P6SM -RA OVC010
      TEMPO 3006/3010 5SM +TSRA OVC004CB=



000
FTUS43 KDDC 291100
TAFGCK
TAF
KGCK 291136Z 2912/3012 VRB06KT P6SM SCT200
     FM291600 19014G18KT P6SM SCT200 PROB30 3002/3006 -TSRA OVC020CB
     FM300600 09014KT P6SM -RA OVC010
      TEMPO 3006/3010 5SM +TSRA OVC004CB=



000
FTUS43 KDDC 290500
TAFDDC
TAF
KDDC 290520Z 2906/3006 VRB06KT P6SM SCT200
     FM291600 19014KT P6SM SCT200 PROB30 3002/3006 -TSRA OVC020CB=



000
FTUS43 KDDC 290500
TAFGCK
TAF
KGCK 290520Z 2906/3006 VRB06KT P6SM SCT200
     FM291600 19014KT P6SM SCT200 PROB30 3002/3006 -TSRA OVC020CB=



000
FTUS43 KDDC 290500
TAFHYS
TAF
KHYS 290520Z 2906/3006 VRB06KT P6SM SCT200
     FM291600 19014KT P6SM SCT200=



000
FTUS43 KDDC 290500
TAFHYS
TAF
KHYS 290520Z 2906/3006 VRB06KT P6SM SCT200
     FM291600 19014KT P6SM SCT200=



000
FTUS43 KDDC 290500
TAFGCK
TAF
KGCK 290520Z 2906/3006 VRB06KT P6SM SCT200
     FM291600 19014KT P6SM SCT200 PROB30 3002/3006 -TSRA OVC020CB=



000
FTUS43 KDDC 290500
TAFDDC
TAF
KDDC 290520Z 2906/3006 VRB06KT P6SM SCT200
     FM291600 19014KT P6SM SCT200 PROB30 3002/3006 -TSRA OVC020CB=



000
FTUS43 KDDC 282300
TAFDDC
TAF
KDDC 282320Z 2900/2924 19009KT P6SM SCT250
     FM290900 17008KT P6SM BKN100
     FM291500 19014G20KT P6SM OVC080=



000
FTUS43 KDDC 282300
TAFGCK
TAF
KGCK 282320Z 2900/2924 19009KT P6SM SCT100
     FM290700 17008KT P6SM BKN080
     FM291500 19014G20KT P6SM OVC060=



000
FTUS43 KDDC 282300
TAFHYS
TAF
KHYS 282320Z 2900/2924 VRB06KT P6SM SCT250
     FM291100 17008KT P6SM BKN100
     FM291800 19012KT P6SM OVC100=



000
FTUS43 KDDC 282300
TAFGCK
TAF
KGCK 282320Z 2900/2924 19009KT P6SM SCT100
     FM290700 17008KT P6SM BKN080
     FM291500 19014G20KT P6SM OVC060=



000
FTUS43 KDDC 282300
TAFHYS
TAF
KHYS 282320Z 2900/2924 VRB06KT P6SM SCT250
     FM291100 17008KT P6SM BKN100
     FM291800 19012KT P6SM OVC100=



000
FTUS43 KDDC 282300
TAFDDC
TAF
KDDC 282320Z 2900/2924 19009KT P6SM SCT250
     FM290900 17008KT P6SM BKN100
     FM291500 19014G20KT P6SM OVC080=



000
FTUS43 KDDC 282000 AAB
TAFGCK
TAF AMD
KGCK 282041Z 2821/2918 22012KT P6SM BKN100
     FM290300 VRB05KT P6SM BKN100
     FM291500 19015G25KT P6SM VCSH BKN080=



000
FTUS43 KDDC 282000 AAB
TAFGCK
TAF AMD
KGCK 282041Z 2821/2918 22012KT P6SM BKN100
     FM290300 VRB05KT P6SM BKN100
     FM291500 19015G25KT P6SM VCSH BKN080=



000
FTUS43 KDDC 281800 AAA
TAFGCK
TAF AMD
KGCK 281853Z 2819/2918 15010KT P6SM BKN100
     FM290300 VRB05KT P6SM BKN100
     FM291500 19015G25KT P6SM VCSH BKN080=



000
FTUS43 KDDC 281800 AAA
TAFGCK
TAF AMD
KGCK 281853Z 2819/2918 15010KT P6SM BKN100
     FM290300 VRB05KT P6SM BKN100
     FM291500 19015G25KT P6SM VCSH BKN080=



    US Dept of Commerce
    National Oceanic and Atmospheric Administration
    National Weather Service
    1325 East West Highway
    Silver Spring, MD 20910
    Page Author: NWS Internet Services Team
Disclaimer
Information Quality
Credits
Glossary
Privacy Policy
Freedom of Information Act (FOIA)
About Us
Career Opportunities